sensor_id;sensor_type;location;lat;lon;timestamp;temperature;humidity
72484;DHT22;74199;52.014;5.430;2024-01-07T00:01:46;16.30;46.70
72484;DHT22;74199;52.014;5.430;2024-01-07T00:04:18;16.30;46.70
72484;DHT22;74199;52.014;5.430;2024-01-07T00:06:46;16.30;46.70
72484;DHT22;74199;52.014;5.430;2024-01-07T00:09:13;16.30;46.70
72484;DHT22;74199;52.014;5.430;2024-01-07T00:11:41;16.30;46.80
72484;DHT22;74199;52.014;5.430;2024-01-07T00:14:08;16.30;46.70
72484;DHT22;74199;52.014;5.430;2024-01-07T00:16:35;16.30;46.70
72484;DHT22;74199;52.014;5.430;2024-01-07T00:19:02;16.30;46.70
72484;DHT22;74199;52.014;5.430;2024-01-07T00:21:29;16.30;46.70
72484;DHT22;74199;52.014;5.430;2024-01-07T00:23:56;16.30;46.70
72484;DHT22;74199;52.014;5.430;2024-01-07T00:26:23;16.30;46.70
72484;DHT22;74199;52.014;5.430;2024-01-07T00:28:50;16.30;46.70
72484;DHT22;74199;52.014;5.430;2024-01-07T00:31:17;16.30;46.60
72484;DHT22;74199;52.014;5.430;2024-01-07T00:33:45;16.30;46.70
72484;DHT22;74199;52.014;5.430;2024-01-07T00:36:12;16.30;46.60
72484;DHT22;74199;52.014;5.430;2024-01-07T00:38:39;16.20;46.70
72484;DHT22;74199;52.014;5.430;2024-01-07T00:41:06;16.30;46.70
72484;DHT22;74199;52.014;5.430;2024-01-07T00:43:33;16.30;46.70
72484;DHT22;74199;52.014;5.430;2024-01-07T00:46:00;16.30;46.60
72484;DHT22;74199;52.014;5.430;2024-01-07T00:48:27;16.30;46.60
72484;DHT22;74199;52.014;5.430;2024-01-07T00:50:54;16.30;46.60
72484;DHT22;74199;52.014;5.430;2024-01-07T00:53:22;16.30;46.70
72484;DHT22;74199;52.014;5.430;2024-01-07T00:55:48;16.30;46.70
72484;DHT22;74199;52.014;5.430;2024-01-07T00:58:15;16.30;46.60
72484;DHT22;74199;52.014;5.430;2024-01-07T01:00:42;16.30;46.60
72484;DHT22;74199;52.014;5.430;2024-01-07T01:03:09;16.30;46.60
72484;DHT22;74199;52.014;5.430;2024-01-07T01:05:37;16.30;46.70
72484;DHT22;74199;52.014;5.430;2024-01-07T01:08:05;16.30;46.60
72484;DHT22;74199;52.014;5.430;2024-01-07T01:10:32;16.30;46.70
72484;DHT22;74199;52.014;5.430;2024-01-07T01:12:59;16.30;46.60
72484;DHT22;74199;52.014;5.430;2024-01-07T01:15:26;16.30;46.60
72484;DHT22;74199;52.014;5.430;2024-01-07T01:17:53;16.30;46.60
72484;DHT22;74199;52.014;5.430;2024-01-07T01:20:20;16.30;46.60
72484;DHT22;74199;52.014;5.430;2024-01-07T01:22:47;16.30;46.60
72484;DHT22;74199;52.014;5.430;2024-01-07T01:25:15;16.30;46.60
72484;DHT22;74199;52.014;5.430;2024-01-07T01:27:42;16.30;46.60
72484;DHT22;74199;52.014;5.430;2024-01-07T01:30:11;16.30;46.60
72484;DHT22;74199;52.014;5.430;2024-01-07T01:32:38;16.30;46.50
72484;DHT22;74199;52.014;5.430;2024-01-07T01:35:06;16.30;46.60
72484;DHT22;74199;52.014;5.430;2024-01-07T01:37:33;16.30;46.50
72484;DHT22;74199;52.014;5.430;2024-01-07T01:40:00;16.30;46.50
72484;DHT22;74199;52.014;5.430;2024-01-07T01:42:27;16.30;46.50
72484;DHT22;74199;52.014;5.430;2024-01-07T01:44:54;16.30;46.50
72484;DHT22;74199;52.014;5.430;2024-01-07T01:47:26;16.30;46.50
72484;DHT22;74199;52.014;5.430;2024-01-07T01:49:53;16.30;46.50
72484;DHT22;74199;52.014;5.430;2024-01-07T01:52:21;16.30;46.60
72484;DHT22;74199;52.014;5.430;2024-01-07T01:54:48;16.30;46.50
72484;DHT22;74199;52.014;5.430;2024-01-07T01:57:19;16.30;46.50
72484;DHT22;74199;52.014;5.430;2024-01-07T01:59:48;16.30;46.50
72484;DHT22;74199;52.014;5.430;2024-01-07T02:02:15;16.30;46.50
72484;DHT22;74199;52.014;5.430;2024-01-07T02:04:42;16.30;46.50
72484;DHT22;74199;52.014;5.430;2024-01-07T02:07:09;16.30;46.50
72484;DHT22;74199;52.014;5.430;2024-01-07T02:09:38;16.30;46.50
72484;DHT22;74199;52.014;5.430;2024-01-07T02:12:07;16.30;46.50
72484;DHT22;74199;52.014;5.430;2024-01-07T02:14:39;16.30;46.40
72484;DHT22;74199;52.014;5.430;2024-01-07T02:17:06;16.30;46.40
72484;DHT22;74199;52.014;5.430;2024-01-07T02:19:33;16.30;46.40
72484;DHT22;74199;52.014;5.430;2024-01-07T02:22:00;16.30;46.50
72484;DHT22;74199;52.014;5.430;2024-01-07T02:24:27;16.30;46.40
72484;DHT22;74199;52.014;5.430;2024-01-07T02:26:56;16.30;46.50
72484;DHT22;74199;52.014;5.430;2024-01-07T02:29:24;16.30;46.50
72484;DHT22;74199;52.014;5.430;2024-01-07T02:31:51;16.30;46.50
72484;DHT22;74199;52.014;5.430;2024-01-07T02:34:18;16.30;46.40
72484;DHT22;74199;52.014;5.430;2024-01-07T02:36:45;16.30;46.40
72484;DHT22;74199;52.014;5.430;2024-01-07T02:39:13;16.30;46.50
72484;DHT22;74199;52.014;5.430;2024-01-07T02:41:40;16.30;46.40
72484;DHT22;74199;52.014;5.430;2024-01-07T02:44:06;16.30;46.40
72484;DHT22;74199;52.014;5.430;2024-01-07T02:46:37;16.30;46.40
72484;DHT22;74199;52.014;5.430;2024-01-07T02:49:04;16.30;46.40
72484;DHT22;74199;52.014;5.430;2024-01-07T02:51:31;16.30;46.40
72484;DHT22;74199;52.014;5.430;2024-01-07T02:53:58;16.30;46.50
72484;DHT22;74199;52.014;5.430;2024-01-07T02:56:25;16.20;46.40
72484;DHT22;74199;52.014;5.430;2024-01-07T02:58:52;16.30;46.40
72484;DHT22;74199;52.014;5.430;2024-01-07T03:01:21;16.20;46.40
72484;DHT22;74199;52.014;5.430;2024-01-07T03:03:50;16.30;46.40
72484;DHT22;74199;52.014;5.430;2024-01-07T03:06:17;16.30;46.40
72484;DHT22;74199;52.014;5.430;2024-01-07T03:08:44;16.30;46.40
72484;DHT22;74199;52.014;5.430;2024-01-07T03:11:11;16.30;46.40
72484;DHT22;74199;52.014;5.430;2024-01-07T03:13:40;16.30;46.40
72484;DHT22;74199;52.014;5.430;2024-01-07T03:16:07;16.30;46.40
72484;DHT22;74199;52.014;5.430;2024-01-07T03:18:34;16.30;46.30
72484;DHT22;74199;52.014;5.430;2024-01-07T03:21:01;16.30;46.40
72484;DHT22;74199;52.014;5.430;2024-01-07T03:23:28;16.30;46.40
72484;DHT22;74199;52.014;5.430;2024-01-07T03:25:58;16.30;46.30
72484;DHT22;74199;52.014;5.430;2024-01-07T03:28:24;16.30;46.40
72484;DHT22;74199;52.014;5.430;2024-01-07T03:30:51;16.30;46.30
72484;DHT22;74199;52.014;5.430;2024-01-07T03:33:18;16.30;46.30
72484;DHT22;74199;52.014;5.430;2024-01-07T03:35:45;16.30;46.30
72484;DHT22;74199;52.014;5.430;2024-01-07T03:38:12;16.30;46.30
72484;DHT22;74199;52.014;5.430;2024-01-07T03:40:40;16.30;46.30
72484;DHT22;74199;52.014;5.430;2024-01-07T03:43:07;16.30;46.30
72484;DHT22;74199;52.014;5.430;2024-01-07T03:45:34;16.30;46.30
72484;DHT22;74199;52.014;5.430;2024-01-07T03:48:02;16.30;46.30
72484;DHT22;74199;52.014;5.430;2024-01-07T03:50:29;16.30;46.30
72484;DHT22;74199;52.014;5.430;2024-01-07T03:52:56;16.30;46.30
72484;DHT22;74199;52.014;5.430;2024-01-07T03:55:23;16.30;46.30
72484;DHT22;74199;52.014;5.430;2024-01-07T03:57:50;16.30;46.30
72484;DHT22;74199;52.014;5.430;2024-01-07T04:00:17;16.30;46.30
72484;DHT22;74199;52.014;5.430;2024-01-07T04:02:44;16.30;46.30
72484;DHT22;74199;52.014;5.430;2024-01-07T04:05:11;16.30;46.20
72484;DHT22;74199;52.014;5.430;2024-01-07T04:07:39;16.30;46.30
72484;DHT22;74199;52.014;5.430;2024-01-07T04:10:06;16.30;46.20
72484;DHT22;74199;52.014;5.430;2024-01-07T04:12:33;16.30;46.20
72484;DHT22;74199;52.014;5.430;2024-01-07T04:15:00;16.30;46.20
72484;DHT22;74199;52.014;5.430;2024-01-07T04:17:27;16.30;46.30
72484;DHT22;74199;52.014;5.430;2024-01-07T04:19:54;16.30;46.20
72484;DHT22;74199;52.014;5.430;2024-01-07T04:22:21;16.30;46.20
72484;DHT22;74199;52.014;5.430;2024-01-07T04:24:48;16.30;46.20
72484;DHT22;74199;52.014;5.430;2024-01-07T04:27:15;16.30;46.20
72484;DHT22;74199;52.014;5.430;2024-01-07T04:29:42;16.30;46.20
72484;DHT22;74199;52.014;5.430;2024-01-07T04:32:09;16.30;46.20
72484;DHT22;74199;52.014;5.430;2024-01-07T04:34:36;16.30;46.10
72484;DHT22;74199;52.014;5.430;2024-01-07T04:37:03;16.30;46.20
72484;DHT22;74199;52.014;5.430;2024-01-07T04:39:30;16.30;46.20
72484;DHT22;74199;52.014;5.430;2024-01-07T04:41:57;16.30;46.10
72484;DHT22;74199;52.014;5.430;2024-01-07T04:44:24;16.30;46.10
72484;DHT22;74199;52.014;5.430;2024-01-07T04:46:51;16.30;46.10
72484;DHT22;74199;52.014;5.430;2024-01-07T04:49:18;16.30;46.10
72484;DHT22;74199;52.014;5.430;2024-01-07T04:51:45;16.30;46.00
72484;DHT22;74199;52.014;5.430;2024-01-07T04:54:12;16.30;46.10
72484;DHT22;74199;52.014;5.430;2024-01-07T04:56:39;16.30;46.10
72484;DHT22;74199;52.014;5.430;2024-01-07T04:59:06;16.30;46.10
72484;DHT22;74199;52.014;5.430;2024-01-07T05:01:33;16.30;46.10
72484;DHT22;74199;52.014;5.430;2024-01-07T05:04:02;16.30;46.10
72484;DHT22;74199;52.014;5.430;2024-01-07T05:06:29;16.30;46.10
72484;DHT22;74199;52.014;5.430;2024-01-07T05:08:56;16.30;46.00
72484;DHT22;74199;52.014;5.430;2024-01-07T05:11:23;16.30;46.10
72484;DHT22;74199;52.014;5.430;2024-01-07T05:13:50;16.30;46.00
72484;DHT22;74199;52.014;5.430;2024-01-07T05:16:20;16.30;46.00
72484;DHT22;74199;52.014;5.430;2024-01-07T05:18:48;16.30;46.00
72484;DHT22;74199;52.014;5.430;2024-01-07T05:21:18;16.30;46.00
72484;DHT22;74199;52.014;5.430;2024-01-07T05:23:45;16.30;46.00
72484;DHT22;74199;52.014;5.430;2024-01-07T05:26:12;16.30;45.90
72484;DHT22;74199;52.014;5.430;2024-01-07T05:28:39;16.30;45.90
72484;DHT22;74199;52.014;5.430;2024-01-07T05:31:14;16.30;45.90
72484;DHT22;74199;52.014;5.430;2024-01-07T05:33:42;16.30;45.90
72484;DHT22;74199;52.014;5.430;2024-01-07T05:36:10;16.30;45.90
72484;DHT22;74199;52.014;5.430;2024-01-07T05:38:38;16.30;45.90
72484;DHT22;74199;52.014;5.430;2024-01-07T05:41:05;16.30;45.80
72484;DHT22;74199;52.014;5.430;2024-01-07T05:43:32;16.30;45.90
72484;DHT22;74199;52.014;5.430;2024-01-07T05:45:59;16.30;45.80
72484;DHT22;74199;52.014;5.430;2024-01-07T05:48:26;16.30;45.80
72484;DHT22;74199;52.014;5.430;2024-01-07T05:50:53;16.30;45.80
72484;DHT22;74199;52.014;5.430;2024-01-07T05:53:20;16.30;45.80
72484;DHT22;74199;52.014;5.430;2024-01-07T05:55:47;16.30;45.80
72484;DHT22;74199;52.014;5.430;2024-01-07T05:58:14;16.30;45.80
72484;DHT22;74199;52.014;5.430;2024-01-07T06:00:41;16.30;45.80
72484;DHT22;74199;52.014;5.430;2024-01-07T06:03:10;16.30;45.80
72484;DHT22;74199;52.014;5.430;2024-01-07T06:05:38;16.30;45.70
72484;DHT22;74199;52.014;5.430;2024-01-07T06:08:06;16.30;45.70
72484;DHT22;74199;52.014;5.430;2024-01-07T06:10:33;16.30;45.70
72484;DHT22;74199;52.014;5.430;2024-01-07T06:13:00;16.30;45.70
72484;DHT22;74199;52.014;5.430;2024-01-07T06:15:27;16.30;45.60
72484;DHT22;74199;52.014;5.430;2024-01-07T06:17:54;16.30;45.60
72484;DHT22;74199;52.014;5.430;2024-01-07T06:20:22;16.30;45.60
72484;DHT22;74199;52.014;5.430;2024-01-07T06:22:49;16.30;45.60
72484;DHT22;74199;52.014;5.430;2024-01-07T06:25:17;16.30;45.60
72484;DHT22;74199;52.014;5.430;2024-01-07T06:27:44;16.30;45.60
72484;DHT22;74199;52.014;5.430;2024-01-07T06:30:11;16.30;45.60
72484;DHT22;74199;52.014;5.430;2024-01-07T06:32:38;16.30;45.50
72484;DHT22;74199;52.014;5.430;2024-01-07T06:35:05;16.30;45.60
72484;DHT22;74199;52.014;5.430;2024-01-07T06:37:32;16.30;45.60
72484;DHT22;74199;52.014;5.430;2024-01-07T06:40:01;16.30;45.60
72484;DHT22;74199;52.014;5.430;2024-01-07T06:42:28;16.30;45.50
72484;DHT22;74199;52.014;5.430;2024-01-07T06:44:55;16.30;45.60
72484;DHT22;74199;52.014;5.430;2024-01-07T06:47:22;16.30;45.50
72484;DHT22;74199;52.014;5.430;2024-01-07T06:49:50;16.30;45.50
72484;DHT22;74199;52.014;5.430;2024-01-07T06:52:17;16.30;45.50
72484;DHT22;74199;52.014;5.430;2024-01-07T06:54:45;16.30;45.40
72484;DHT22;74199;52.014;5.430;2024-01-07T06:57:12;16.30;45.40
72484;DHT22;74199;52.014;5.430;2024-01-07T06:59:39;16.30;45.40
72484;DHT22;74199;52.014;5.430;2024-01-07T07:02:06;16.30;45.40
72484;DHT22;74199;52.014;5.430;2024-01-07T07:04:33;16.30;45.50
72484;DHT22;74199;52.014;5.430;2024-01-07T07:07:00;16.30;45.40
72484;DHT22;74199;52.014;5.430;2024-01-07T07:09:28;16.30;45.40
72484;DHT22;74199;52.014;5.430;2024-01-07T07:11:54;16.30;45.40
72484;DHT22;74199;52.014;5.430;2024-01-07T07:14:21;16.30;45.30
72484;DHT22;74199;52.014;5.430;2024-01-07T07:16:48;16.30;45.30
72484;DHT22;74199;52.014;5.430;2024-01-07T07:19:15;16.30;45.30
72484;DHT22;74199;52.014;5.430;2024-01-07T07:21:43;16.30;45.30
72484;DHT22;74199;52.014;5.430;2024-01-07T07:24:10;16.30;45.30
72484;DHT22;74199;52.014;5.430;2024-01-07T07:26:37;16.30;45.30
72484;DHT22;74199;52.014;5.430;2024-01-07T07:29:08;16.30;45.20
72484;DHT22;74199;52.014;5.430;2024-01-07T07:31:38;16.30;45.20
72484;DHT22;74199;52.014;5.430;2024-01-07T07:34:05;16.30;45.20
72484;DHT22;74199;52.014;5.430;2024-01-07T07:36:32;16.30;45.20
72484;DHT22;74199;52.014;5.430;2024-01-07T07:39:00;16.30;45.20
72484;DHT22;74199;52.014;5.430;2024-01-07T07:41:27;16.30;45.20
72484;DHT22;74199;52.014;5.430;2024-01-07T07:43:55;16.30;45.10
72484;DHT22;74199;52.014;5.430;2024-01-07T07:46:22;16.30;45.10
72484;DHT22;74199;52.014;5.430;2024-01-07T07:48:49;16.30;45.10
72484;DHT22;74199;52.014;5.430;2024-01-07T07:51:17;16.30;45.20
72484;DHT22;74199;52.014;5.430;2024-01-07T07:53:43;16.30;45.10
72484;DHT22;74199;52.014;5.430;2024-01-07T07:56:10;16.30;45.10
72484;DHT22;74199;52.014;5.430;2024-01-07T07:58:37;16.30;45.00
72484;DHT22;74199;52.014;5.430;2024-01-07T08:01:05;16.30;45.00
72484;DHT22;74199;52.014;5.430;2024-01-07T08:03:33;16.30;45.00
72484;DHT22;74199;52.014;5.430;2024-01-07T08:06:01;16.30;45.00
72484;DHT22;74199;52.014;5.430;2024-01-07T08:08:28;16.30;45.00
72484;DHT22;74199;52.014;5.430;2024-01-07T08:10:55;16.30;45.00
72484;DHT22;74199;52.014;5.430;2024-01-07T08:13:22;16.30;45.00
72484;DHT22;74199;52.014;5.430;2024-01-07T08:15:49;16.30;44.90
72484;DHT22;74199;52.014;5.430;2024-01-07T08:18:16;16.30;45.00
72484;DHT22;74199;52.014;5.430;2024-01-07T08:20:44;16.30;44.90
72484;DHT22;74199;52.014;5.430;2024-01-07T08:23:11;16.30;44.90
72484;DHT22;74199;52.014;5.430;2024-01-07T08:25:38;16.30;44.90
72484;DHT22;74199;52.014;5.430;2024-01-07T08:28:05;16.30;44.90
72484;DHT22;74199;52.014;5.430;2024-01-07T08:30:32;16.30;44.80
72484;DHT22;74199;52.014;5.430;2024-01-07T08:32:59;16.30;44.90
72484;DHT22;74199;52.014;5.430;2024-01-07T08:35:26;16.30;44.80
72484;DHT22;74199;52.014;5.430;2024-01-07T08:37:53;16.30;44.80
72484;DHT22;74199;52.014;5.430;2024-01-07T08:40:20;16.30;44.80
72484;DHT22;74199;52.014;5.430;2024-01-07T08:42:47;16.30;44.80
72484;DHT22;74199;52.014;5.430;2024-01-07T08:45:14;16.30;44.70
72484;DHT22;74199;52.014;5.430;2024-01-07T08:47:41;16.30;44.80
72484;DHT22;74199;52.014;5.430;2024-01-07T08:50:11;16.30;44.70
72484;DHT22;74199;52.014;5.430;2024-01-07T08:52:40;16.30;44.70
72484;DHT22;74199;52.014;5.430;2024-01-07T08:55:07;16.30;44.70
72484;DHT22;74199;52.014;5.430;2024-01-07T08:57:37;16.30;44.60
72484;DHT22;74199;52.014;5.430;2024-01-07T09:00:06;16.30;44.70
72484;DHT22;74199;52.014;5.430;2024-01-07T09:02:34;16.30;44.60
72484;DHT22;74199;52.014;5.430;2024-01-07T09:05:06;16.30;44.60
72484;DHT22;74199;52.014;5.430;2024-01-07T09:07:33;16.30;44.60
72484;DHT22;74199;52.014;5.430;2024-01-07T09:10:00;16.30;44.70
72484;DHT22;74199;52.014;5.430;2024-01-07T09:12:28;16.30;44.60
72484;DHT22;74199;52.014;5.430;2024-01-07T09:14:55;16.30;44.60
72484;DHT22;74199;52.014;5.430;2024-01-07T09:17:22;16.30;44.60
72484;DHT22;74199;52.014;5.430;2024-01-07T09:19:49;16.30;44.60
72484;DHT22;74199;52.014;5.430;2024-01-07T09:22:16;16.30;44.60
72484;DHT22;74199;52.014;5.430;2024-01-07T09:24:43;16.30;44.50
72484;DHT22;74199;52.014;5.430;2024-01-07T09:27:10;16.30;44.50
72484;DHT22;74199;52.014;5.430;2024-01-07T09:29:37;16.30;44.50
72484;DHT22;74199;52.014;5.430;2024-01-07T09:32:04;16.30;44.50
72484;DHT22;74199;52.014;5.430;2024-01-07T09:34:31;16.30;44.50
72484;DHT22;74199;52.014;5.430;2024-01-07T09:36:58;16.30;44.50
72484;DHT22;74199;52.014;5.430;2024-01-07T09:39:25;16.30;44.50
72484;DHT22;74199;52.014;5.430;2024-01-07T09:41:52;16.30;44.40
72484;DHT22;74199;52.014;5.430;2024-01-07T09:44:19;16.30;44.40
72484;DHT22;74199;52.014;5.430;2024-01-07T09:46:48;16.30;44.40
72484;DHT22;74199;52.014;5.430;2024-01-07T09:49:18;16.30;44.40
72484;DHT22;74199;52.014;5.430;2024-01-07T09:51:45;16.30;44.40
72484;DHT22;74199;52.014;5.430;2024-01-07T09:54:15;16.30;44.30
72484;DHT22;74199;52.014;5.430;2024-01-07T09:56:50;16.30;44.30
72484;DHT22;74199;52.014;5.430;2024-01-07T09:59:18;16.30;44.40
72484;DHT22;74199;52.014;5.430;2024-01-07T10:01:46;16.30;44.40
72484;DHT22;74199;52.014;5.430;2024-01-07T10:04:15;16.30;44.30
72484;DHT22;74199;52.014;5.430;2024-01-07T10:06:42;16.30;44.30
72484;DHT22;74199;52.014;5.430;2024-01-07T10:09:11;16.30;44.30
72484;DHT22;74199;52.014;5.430;2024-01-07T10:11:39;16.30;44.30
72484;DHT22;74199;52.014;5.430;2024-01-07T10:14:06;16.30;44.30
72484;DHT22;74199;52.014;5.430;2024-01-07T10:16:33;16.30;44.30
72484;DHT22;74199;52.014;5.430;2024-01-07T10:19:00;16.30;44.20
72484;DHT22;74199;52.014;5.430;2024-01-07T10:21:27;16.30;44.20
72484;DHT22;74199;52.014;5.430;2024-01-07T10:24:10;16.30;44.20
72484;DHT22;74199;52.014;5.430;2024-01-07T10:26:38;16.30;44.20
72484;DHT22;74199;52.014;5.430;2024-01-07T10:29:06;16.30;44.20
72484;DHT22;74199;52.014;5.430;2024-01-07T10:31:35;16.30;44.20
72484;DHT22;74199;52.014;5.430;2024-01-07T10:34:07;16.30;44.10
72484;DHT22;74199;52.014;5.430;2024-01-07T10:36:35;16.30;44.10
72484;DHT22;74199;52.014;5.430;2024-01-07T10:39:04;16.30;44.20
72484;DHT22;74199;52.014;5.430;2024-01-07T10:41:32;16.30;44.20
72484;DHT22;74199;52.014;5.430;2024-01-07T10:44:01;16.30;44.10
72484;DHT22;74199;52.014;5.430;2024-01-07T10:46:28;16.30;44.20
72484;DHT22;74199;52.014;5.430;2024-01-07T10:49:04;16.30;44.10
72484;DHT22;74199;52.014;5.430;2024-01-07T10:51:34;16.30;44.10
72484;DHT22;74199;52.014;5.430;2024-01-07T10:54:02;16.30;44.10
72484;DHT22;74199;52.014;5.430;2024-01-07T10:56:38;16.30;44.10
72484;DHT22;74199;52.014;5.430;2024-01-07T10:59:06;16.30;44.00
72484;DHT22;74199;52.014;5.430;2024-01-07T11:01:33;16.30;44.00
72484;DHT22;74199;52.014;5.430;2024-01-07T11:04:20;16.30;44.00
72484;DHT22;74199;52.014;5.430;2024-01-07T11:07:03;16.30;43.90
72484;DHT22;74199;52.014;5.430;2024-01-07T11:09:37;16.30;44.00
72484;DHT22;74199;52.014;5.430;2024-01-07T11:12:06;16.40;43.90
72484;DHT22;74199;52.014;5.430;2024-01-07T11:14:39;16.30;43.90
72484;DHT22;74199;52.014;5.430;2024-01-07T11:17:06;16.30;44.00
72484;DHT22;74199;52.014;5.430;2024-01-07T11:19:38;16.30;43.90
72484;DHT22;74199;52.014;5.430;2024-01-07T11:22:24;16.40;43.90
72484;DHT22;74199;52.014;5.430;2024-01-07T11:24:52;16.30;43.80
72484;DHT22;74199;52.014;5.430;2024-01-07T11:27:21;16.40;43.90
72484;DHT22;74199;52.014;5.430;2024-01-07T11:32:24;16.30;43.70
72484;DHT22;74199;52.014;5.430;2024-01-07T11:34:55;16.40;43.80
72484;DHT22;74199;52.014;5.430;2024-01-07T11:37:23;16.40;43.80
72484;DHT22;74199;52.014;5.430;2024-01-07T11:39:55;16.40;43.80
72484;DHT22;74199;52.014;5.430;2024-01-07T11:42:22;16.40;43.70
72484;DHT22;74199;52.014;5.430;2024-01-07T11:44:53;16.40;43.70
72484;DHT22;74199;52.014;5.430;2024-01-07T11:47:21;16.40;43.70
72484;DHT22;74199;52.014;5.430;2024-01-07T11:49:49;16.40;43.70
72484;DHT22;74199;52.014;5.430;2024-01-07T11:52:16;16.40;43.70
72484;DHT22;74199;52.014;5.430;2024-01-07T11:54:44;16.40;43.70
72484;DHT22;74199;52.014;5.430;2024-01-07T11:57:11;16.40;43.70
72484;DHT22;74199;52.014;5.430;2024-01-07T11:59:38;16.40;43.70
72484;DHT22;74199;52.014;5.430;2024-01-07T12:02:10;16.40;43.60
72484;DHT22;74199;52.014;5.430;2024-01-07T12:04:37;16.40;43.70
72484;DHT22;74199;52.014;5.430;2024-01-07T12:07:04;16.40;43.60
72484;DHT22;74199;52.014;5.430;2024-01-07T12:09:32;16.40;43.60
72484;DHT22;74199;52.014;5.430;2024-01-07T12:11:59;16.40;43.60
72484;DHT22;74199;52.014;5.430;2024-01-07T12:14:28;16.40;43.60
72484;DHT22;74199;52.014;5.430;2024-01-07T12:16:55;16.40;43.60
72484;DHT22;74199;52.014;5.430;2024-01-07T12:19:22;16.40;43.60
72484;DHT22;74199;52.014;5.430;2024-01-07T12:22:05;16.50;43.50
72484;DHT22;74199;52.014;5.430;2024-01-07T12:24:33;16.50;43.50
72484;DHT22;74199;52.014;5.430;2024-01-07T12:27:05;16.50;43.50
72484;DHT22;74199;52.014;5.430;2024-01-07T12:29:32;16.50;43.50
72484;DHT22;74199;52.014;5.430;2024-01-07T12:31:59;16.60;43.50
72484;DHT22;74199;52.014;5.430;2024-01-07T12:34:29;16.60;43.50
72484;DHT22;74199;52.014;5.430;2024-01-07T12:36:56;16.60;43.50
72484;DHT22;74199;52.014;5.430;2024-01-07T12:39:26;16.60;43.40
72484;DHT22;74199;52.014;5.430;2024-01-07T12:41:54;16.60;43.40
72484;DHT22;74199;52.014;5.430;2024-01-07T12:44:21;16.70;43.40
72484;DHT22;74199;52.014;5.430;2024-01-07T12:46:48;16.70;43.30
72484;DHT22;74199;52.014;5.430;2024-01-07T12:49:18;16.70;43.30
72484;DHT22;74199;52.014;5.430;2024-01-07T12:51:45;16.70;43.30
72484;DHT22;74199;52.014;5.430;2024-01-07T12:54:12;16.70;43.30
72484;DHT22;74199;52.014;5.430;2024-01-07T12:56:39;16.80;43.20
72484;DHT22;74199;52.014;5.430;2024-01-07T12:59:06;16.80;43.20
72484;DHT22;74199;52.014;5.430;2024-01-07T13:01:33;16.80;43.20
72484;DHT22;74199;52.014;5.430;2024-01-07T13:04:03;16.80;43.10
72484;DHT22;74199;52.014;5.430;2024-01-07T13:06:30;16.90;43.10
72484;DHT22;74199;52.014;5.430;2024-01-07T13:08:57;16.90;43.20
72484;DHT22;74199;52.014;5.430;2024-01-07T13:11:27;16.90;43.40
72484;DHT22;74199;52.014;5.430;2024-01-07T13:13:54;16.90;43.60
72484;DHT22;74199;52.014;5.430;2024-01-07T13:16:25;17.00;43.70
72484;DHT22;74199;52.014;5.430;2024-01-07T13:18:54;17.00;43.70
72484;DHT22;74199;52.014;5.430;2024-01-07T13:21:21;17.00;43.70
72484;DHT22;74199;52.014;5.430;2024-01-07T13:23:48;17.00;43.80
72484;DHT22;74199;52.014;5.430;2024-01-07T13:26:16;17.00;43.70
72484;DHT22;74199;52.014;5.430;2024-01-07T13:28:43;17.00;43.70
72484;DHT22;74199;52.014;5.430;2024-01-07T13:31:10;17.00;43.70
72484;DHT22;74199;52.014;5.430;2024-01-07T13:33:40;17.00;43.70
72484;DHT22;74199;52.014;5.430;2024-01-07T13:36:07;17.00;43.70
72484;DHT22;74199;52.014;5.430;2024-01-07T13:38:37;17.00;43.80
72484;DHT22;74199;52.014;5.430;2024-01-07T13:41:10;17.10;43.70
72484;DHT22;74199;52.014;5.430;2024-01-07T13:43:37;17.10;43.70
72484;DHT22;74199;52.014;5.430;2024-01-07T13:46:07;17.10;43.70
72484;DHT22;74199;52.014;5.430;2024-01-07T13:48:34;17.10;43.70
72484;DHT22;74199;52.014;5.430;2024-01-07T13:51:02;17.10;43.70
72484;DHT22;74199;52.014;5.430;2024-01-07T13:53:29;17.10;43.70
72484;DHT22;74199;52.014;5.430;2024-01-07T13:55:56;17.10;43.60
72484;DHT22;74199;52.014;5.430;2024-01-07T13:58:23;17.10;43.60
72484;DHT22;74199;52.014;5.430;2024-01-07T14:00:51;17.10;43.60
72484;DHT22;74199;52.014;5.430;2024-01-07T14:03:19;17.10;43.60
72484;DHT22;74199;52.014;5.430;2024-01-07T14:05:47;17.10;43.50
72484;DHT22;74199;52.014;5.430;2024-01-07T14:08:14;17.10;43.50
72484;DHT22;74199;52.014;5.430;2024-01-07T14:10:41;17.10;43.50
72484;DHT22;74199;52.014;5.430;2024-01-07T14:13:08;17.10;43.50
72484;DHT22;74199;52.014;5.430;2024-01-07T14:15:35;17.10;43.50
72484;DHT22;74199;52.014;5.430;2024-01-07T14:18:03;17.00;43.50
72484;DHT22;74199;52.014;5.430;2024-01-07T14:20:30;17.00;43.50
72484;DHT22;74199;52.014;5.430;2024-01-07T14:22:57;17.10;43.50
72484;DHT22;74199;52.014;5.430;2024-01-07T14:25:25;17.00;43.40
72484;DHT22;74199;52.014;5.430;2024-01-07T14:27:52;17.00;43.50
72484;DHT22;74199;52.014;5.430;2024-01-07T14:30:19;17.00;43.50
72484;DHT22;74199;52.014;5.430;2024-01-07T14:32:46;17.00;43.50
72484;DHT22;74199;52.014;5.430;2024-01-07T14:35:13;17.00;43.40
72484;DHT22;74199;52.014;5.430;2024-01-07T14:37:40;17.10;43.40
72484;DHT22;74199;52.014;5.430;2024-01-07T14:40:08;17.20;43.30
72484;DHT22;74199;52.014;5.430;2024-01-07T14:42:35;17.20;43.20
72484;DHT22;74199;52.014;5.430;2024-01-07T14:45:02;17.30;43.00
72484;DHT22;74199;52.014;5.430;2024-01-07T14:47:31;17.30;42.90
72484;DHT22;74199;52.014;5.430;2024-01-07T14:49:58;17.30;42.80
72484;DHT22;74199;52.014;5.430;2024-01-07T14:52:25;17.40;42.70
72484;DHT22;74199;52.014;5.430;2024-01-07T14:54:54;17.40;42.70
72484;DHT22;74199;52.014;5.430;2024-01-07T14:57:21;17.40;42.60
72484;DHT22;74199;52.014;5.430;2024-01-07T14:59:48;17.40;42.60
72484;DHT22;74199;52.014;5.430;2024-01-07T15:02:15;17.40;42.60
72484;DHT22;74199;52.014;5.430;2024-01-07T15:04:42;17.40;42.60
72484;DHT22;74199;52.014;5.430;2024-01-07T15:07:09;17.40;42.60
72484;DHT22;74199;52.014;5.430;2024-01-07T15:09:39;17.40;42.50
72484;DHT22;74199;52.014;5.430;2024-01-07T15:12:10;17.40;42.40
72484;DHT22;74199;52.014;5.430;2024-01-07T15:14:37;17.40;42.50
72484;DHT22;74199;52.014;5.430;2024-01-07T15:17:04;17.40;42.50
72484;DHT22;74199;52.014;5.430;2024-01-07T15:19:31;17.30;42.40
72484;DHT22;74199;52.014;5.430;2024-01-07T15:21:58;17.30;42.50
72484;DHT22;74199;52.014;5.430;2024-01-07T15:24:25;17.30;42.60
72484;DHT22;74199;52.014;5.430;2024-01-07T15:26:52;17.20;42.60
72484;DHT22;74199;52.014;5.430;2024-01-07T15:29:19;17.20;42.70
72484;DHT22;74199;52.014;5.430;2024-01-07T15:31:46;17.20;42.80
72484;DHT22;74199;52.014;5.430;2024-01-07T15:34:13;17.20;42.80
72484;DHT22;74199;52.014;5.430;2024-01-07T15:36:40;17.20;42.80